Latest Weather Observations for Cairns

IDQ60801

Issued at 7:32 am EST Wednesday 1 April 2015 (issued every 30 minutes, with the page automatically refreshed every 10 minutes)

About weather observations | Map of weather stations | Latest weather observations for QLD | Other Formats
Station Details ID: 031011 Name: CAIRNS AERO Lat: -16.87 Lon: 145.75 Height: 2.22 m
Data from the previous 72 hours. | See also: Recent months at Cairns
Date/Time
EST
Temp
°C
App
Temp
°C
Dew
Point
Rel
Hum
%
Delta-T
°C
Wind Press
QNH
hPa
Press
MSL
hPa
Rain
since 9 am
mm
Dir
 
Spd
km/h
Gust
km/h
Spd
kts
Gust
kts
01/07:00am 24.9 25.8 20.8 78 2.7 SE 17 26 9 14 1013.6 - 0.2
01/06:30am 23.3 24.1 20.7 85 1.7 ESE 17 19 9 10 1013.2 - 0.2
01/06:00am 25.5 26.1 20.3 73 3.4 S 17 26 9 14 1012.8 1012.7 0.2
01/05:30am 25.1 25.7 20.3 74 3.1 S 17 26 9 14 1012.7 - 0.2
01/05:00am 25.3 25.9 20.2 73 3.3 S 17 26 9 14 1012.6 - 0.2
01/04:30am 25.3 25.8 20.1 73 3.4 SSE 17 26 9 14 1012.5 - 0.2
01/04:00am 25.2 25.5 20.3 74 3.2 SSE 19 28 10 15 1012.4 - 0.2
01/03:30am 25.0 25.8 20.6 76 2.9 SSE 17 24 9 13 1012.4 - 0.2
01/03:00am 25.3 25.7 20.6 75 3.1 SSE 19 30 10 16 1012.6 1012.5 0.2
01/02:30am 25.3 26.1 20.6 75 3.1 SSE 17 24 9 13 1012.9 - 0.2
01/02:00am 25.3 25.7 20.7 75 3.0 SSE 19 26 10 14 1013.3 - 0.2
01/01:30am 25.4 25.7 20.7 75 3.1 SSE 20 28 11 15 1013.7 - 0.2
01/01:00am 25.3 25.8 20.9 76 2.9 SSE 19 28 10 15 1014.2 - 0.2
01/12:30am 25.5 26.0 20.8 75 3.1 SSE 19 28 10 15 1014.4 - 0.2
 
Date/Time
EST
Temp
°C
App
Temp
°C
Dew
Point
Rel
Hum
%
Delta-T
°C
Wind Press
QNH
hPa
Press
MSL
hPa
Rain
since 9 am
mm
Dir
 
Spd
km/h
Gust
km/h
Spd
kts
Gust
kts
31/11:30pm 25.4 26.1 20.5 74 3.2 SSE 17 24 9 13 1015.1 - 0.2
31/11:00pm 25.0 26.2 20.6 76 2.9 SE 15 20 8 11 1015.1 - 0.2
31/10:30pm 24.9 26.1 20.6 77 2.8 SE 15 19 8 10 1015.2 - 0.2
31/10:00pm 25.8 25.9 20.3 71 3.6 SSE 20 26 11 14 1015.3 - 0.2
31/09:30pm 26.0 26.0 20.2 70 3.8 SSE 20 32 11 17 1015.2 - 0.2
31/09:00pm 25.9 25.7 20.6 72 3.5 SSE 22 32 12 17 1015.1 1015.0 0.2
31/08:30pm 26.3 26.2 20.7 71 3.7 SSE 22 32 12 17 1014.8 - 0.2
31/08:00pm 26.2 26.4 20.6 71 3.7 SSE 20 26 11 14 1014.5 - 0.2
31/07:30pm 26.2 26.4 20.6 71 3.7 SSE 20 26 11 14 1014.2 - 0.2
31/07:00pm 26.4 26.9 20.1 68 4.1 SSE 17 24 9 13 1013.6 - 0.2
31/06:30pm 27.2 26.6 19.7 63 4.9 SSE 22 28 12 15 1013.4 - 0.2
31/06:00pm 27.5 25.0 19.8 63 5.0 SE 32 43 17 23 1013.0 1012.9 0.2
31/05:30pm 28.1 26.3 20.3 62 5.1 SE 30 37 16 20 1012.8 - 0.2
31/05:00pm 29.0 26.6 20.0 58 5.9 SE 32 39 17 21 1012.6 - 0.2
31/04:30pm 28.7 27.0 19.8 58 5.8 SE 28 35 15 19 1012.4 - 0.2
31/04:00pm 29.6 27.1 20.2 57 6.2 ESE 33 48 18 26 1012.3 - 0.2
31/03:30pm 29.6 27.7 21.4 61 5.5 ESE 33 41 18 22 1012.3 - 0.2
31/03:00pm 30.2 28.4 21.6 60 5.8 ESE 33 41 18 22 1012.4 1012.3 0.2
31/02:30pm 30.2 28.9 22.1 62 5.5 SE 32 39 17 21 1012.7 - 0.2
31/02:00pm 29.7 28.6 22.8 66 4.7 SE 33 44 18 24 1013.1 - 0.2
31/01:30pm 29.3 28.9 22.4 66 4.7 ESE 28 33 15 18 1013.5 - 0.2
31/01:00pm 29.6 27.9 21.7 62 5.3 SE 33 43 18 23 1013.9 - 0.2
31/12:30pm 29.9 29.3 21.9 62 5.4 SE 28 35 15 19 1014.1 - 0.2
31/12:00pm 29.0 29.2 22.8 69 4.2 SE 26 30 14 16 1014.8 1014.7 0.2
31/11:30am 28.7 29.8 23.0 71 3.9 SSE 22 28 12 15 1015.3 - 0.2
31/11:00am 28.2 30.8 24.0 78 2.9 SSE 17 26 9 14 1015.9 - 0.2
31/10:30am 26.4 29.1 23.5 84 2.0 S 15 26 8 14 1016.1 - 0.2
31/10:00am 26.4 28.0 23.8 85 1.8 SSE 22 32 12 17 1016.1 - 0.2
31/09:30am 26.8 30.1 24.5 87 1.6 SSE 15 22 8 12 1016.0 - 0.2
31/09:00am 25.7 28.8 24.2 91 1.0 SSE 15 22 8 12 1016.0 1015.9 5.8
31/08:47am 25.5 28.3 23.6 89 1.3 SSE 15 20 8 11 1016.0 - 5.8
31/08:30am 25.6 28.4 23.7 89 1.3 SSE 15 19 8 10 1015.8 - 5.6
31/08:00am 25.4 28.0 23.3 88 1.4 S 15 26 8 14 1015.6 - 5.4
31/07:30am 25.5 28.3 23.0 86 1.7 SSE 13 22 7 12 1015.2 - 5.4
31/07:00am 25.0 27.0 22.9 88 1.4 S 17 26 9 14 1014.8 - 5.2
31/06:30am 24.9 27.3 23.0 89 1.3 S 15 24 8 13 1014.4 - 5.2
31/06:00am 25.4 27.2 22.6 84 1.9 S 17 26 9 14 1014.1 1014.0 5.0
31/05:30am 25.3 27.1 22.5 84 1.9 S 17 26 9 14 1013.8 - 5.0
31/05:00am 25.5 26.9 22.5 83 2.0 S 19 26 10 14 1013.6 - 5.0
31/04:30am 24.7 27.2 23.1 91 1.1 SSE 15 26 8 14 1013.7 - 4.8
31/04:00am 24.6 26.8 23.3 92 0.9 SSE 17 26 9 14 1013.6 - 4.6
31/03:30am 24.5 27.1 23.3 93 0.8 SSE 15 19 8 10 1013.5 - 4.0
31/03:16am 24.9 27.9 23.3 91 1.1 SE 13 17 7 9 1013.7 - 2.6
31/03:00am 25.0 26.7 23.1 89 1.3 S 19 28 10 15 1013.6 1013.5 2.0
31/02:30am 25.1 27.3 23.2 89 1.3 S 17 24 9 13 1014.0 - 1.8
31/02:00am 25.2 27.7 23.1 88 1.4 S 15 22 8 12 1014.4 - 1.6
31/01:30am 25.1 27.5 22.9 87 1.5 SSE 15 19 8 10 1014.8 - 1.4
31/01:00am 25.1 27.3 23.2 89 1.3 SSE 17 24 9 13 1015.2 - 1.2
31/12:30am 25.5 26.8 22.7 84 1.9 S 20 30 11 16 1015.4 - 1.2
31/12:00am 25.5 27.3 22.5 83 2.0 S 17 26 9 14 1015.6 1015.5 1.2
 
Date/Time
EST
Temp
°C
App
Temp
°C
Dew
Point
Rel
Hum
%
Delta-T
°C
Wind Press
QNH
hPa
Press
MSL
hPa
Rain
since 9 am
mm
Dir
 
Spd
km/h
Gust
km/h
Spd
kts
Gust
kts
30/11:30pm 24.8 27.2 23.0 90 1.2 SSE 15 20 8 11 1016.1 - 1.2
30/11:29pm 24.8 27.2 23.0 90 1.2 SSE 15 20 8 11 1016.1 - 1.2
30/11:21pm 24.7 27.2 23.2 91 1.0 S 15 22 8 12 1016.1 - 1.2
30/11:09pm 24.7 26.6 23.4 92 0.9 S 19 28 10 15 1016.4 - 1.0
30/11:00pm 25.2 26.8 22.8 86 1.6 S 19 30 10 16 1016.2 - 0.0
30/10:30pm 25.4 27.0 23.2 88 1.5 SSE 20 32 11 17 1016.3 - 0.0
30/10:00pm 26.2 28.3 22.5 80 2.5 S 15 22 8 12 1016.3 - 0.0
30/09:30pm 26.1 27.9 22.5 80 2.4 S 17 26 9 14 1016.4 - 0.0
30/09:00pm 26.2 28.0 22.5 80 2.5 SSE 17 28 9 15 1016.3 1016.2 0.0
30/08:30pm 26.2 28.4 22.6 80 2.4 SSE 15 22 8 12 1016.1 - 0.0
30/08:00pm 26.6 28.5 22.1 76 3.0 SSE 15 22 8 12 1015.7 - 0.0
30/07:30pm 27.0 28.4 21.8 73 3.5 SSE 17 22 9 12 1015.5 - 0.0
30/07:00pm 27.4 28.3 21.9 72 3.7 SSE 20 26 11 14 1015.2 - 0.0
30/06:30pm 27.9 28.0 21.8 69 4.1 SE 24 33 13 18 1014.9 - 0.0
30/06:00pm 28.2 28.3 21.8 68 4.3 SSE 24 35 13 19 1014.7 1014.6 0.0
30/05:30pm 29.0 28.1 21.5 64 5.0 SE 28 35 15 19 1014.6 - 0.0
30/05:00pm 29.5 28.3 20.9 60 5.7 ESE 28 35 15 19 1014.6 - 0.0
30/04:30pm 29.8 30.6 21.8 62 5.4 ESE 20 32 11 17 1014.3 - 0.0
30/04:00pm 30.8 29.8 21.3 57 6.4 ESE 28 35 15 19 1014.1 - 0.0
30/03:30pm 29.4 27.5 20.1 57 6.1 SE 30 37 16 20 1014.0 - 0.0
30/03:00pm 31.0 29.2 20.4 53 7.0 SE 30 37 16 20 1014.0 1013.9 0.0
30/02:30pm 30.6 29.7 21.4 58 6.2 SE 28 35 15 19 1014.2 - 0.0
30/02:00pm 30.7 29.2 21.0 56 6.5 SE 30 41 16 22 1014.3 - 0.0
30/01:30pm 30.4 28.8 20.8 56 6.4 SE 30 37 16 20 1014.7 - 0.0
30/01:00pm 30.9 28.9 20.7 54 6.8 SE 32 41 17 22 1015.1 - 0.0
30/12:30pm 30.6 28.1 20.1 53 6.9 SE 33 44 18 24 1015.5 - 0.0
30/12:00pm 30.7 28.0 19.7 52 7.2 SE 33 48 18 26 1015.9 1015.8 0.0
30/11:30am 30.8 27.4 18.9 49 7.7 SE 35 48 19 26 1016.3 - 0.0
30/11:00am 30.8 27.7 19.7 51 7.3 SE 35 46 19 25 1016.5 - 0.0
30/10:30am 30.4 27.8 19.9 53 6.9 SE 33 41 18 22 1016.6 - 0.0
30/10:00am 29.7 27.2 20.1 56 6.3 SE 33 44 18 24 1016.9 - 0.0
30/09:58am 29.8 27.5 20.1 56 6.4 SE 32 44 17 24 1016.9 - 0.0
30/09:30am 28.5 29.4 21.5 66 4.7 SSE 19 26 10 14 1017.1 - 0.0
30/09:00am 27.4 28.0 21.4 70 4.0 SSE 20 28 11 15 1017.1 1017.0 0.0
30/08:30am 27.0 28.1 21.3 71 3.8 SSE 17 26 9 14 1016.9 - 0.0
30/08:00am 26.0 26.8 20.7 72 3.5 SSE 17 28 9 15 1016.5 - 0.0
30/07:30am 26.1 27.3 19.9 68 4.0 SSE 13 19 7 10 1015.9 - 0.0
30/07:00am 25.5 26.2 19.6 70 3.8 S 15 26 8 14 1015.9 - 0.0
30/06:30am 24.3 25.2 20.0 77 2.8 SSE 15 19 8 10 1015.6 - 0.0
30/06:00am 24.5 25.3 19.8 75 3.0 SSE 15 19 8 10 1015.3 1015.2 0.0
30/05:30am 24.6 25.4 19.8 74 3.1 SSE 15 22 8 12 1014.9 - 0.0
30/05:00am 24.6 25.5 20.1 76 2.9 SSE 15 20 8 11 1014.7 - 0.0
30/04:30am 24.6 25.6 20.3 77 2.8 SSE 15 19 8 10 1014.4 - 0.0
30/04:00am 24.9 25.5 20.3 75 3.0 SSE 17 26 9 14 1014.3 - 0.0
30/03:30am 24.8 25.5 20.5 77 2.8 S 17 28 9 15 1014.0 - 0.0
30/03:00am 24.8 25.2 20.7 78 2.7 S 19 28 10 15 1014.0 1013.9 0.0
30/02:30am 25.0 25.8 20.7 77 2.8 SSE 17 26 9 14 1014.3 - 0.0
30/02:00am 25.2 26.1 20.8 76 2.9 SSE 17 24 9 13 1014.7 - 0.0
30/01:30am 25.3 26.3 21.0 77 2.8 SSE 17 24 9 13 1015.2 - 0.0
30/01:00am 25.6 26.2 21.0 75 3.0 S 19 26 10 14 1015.5 - 0.0
30/12:30am 25.8 26.3 21.1 75 3.1 S 20 28 11 15 1015.9 - 0.0
30/12:00am 25.9 26.9 21.0 74 3.2 SSE 17 26 9 14 1016.2 1016.1 0.0
 
Date/Time
EST
Temp
°C
App
Temp
°C
Dew
Point
Rel
Hum
%
Delta-T
°C
Wind Press
QNH
hPa
Press
MSL
hPa
Rain
since 9 am
mm
Dir
 
Spd
km/h
Gust
km/h
Spd
kts
Gust
kts
29/11:30pm 26.0 26.5 20.8 73 3.4 S 19 30 10 16 1016.3 - 0.0
29/11:00pm 26.3 26.6 20.7 71 3.7 S 20 33 11 18 1016.3 - 0.0
29/10:30pm 26.2 27.0 20.7 71 3.6 S 17 28 9 15 1016.3 - 0.0
29/10:00pm 26.4 26.7 20.8 71 3.7 S 20 37 11 20 1016.5 - 0.0
29/09:30pm 26.8 27.1 20.7 69 4.0 S 20 32 11 17 1016.4 - 0.0
29/09:00pm 26.5 27.0 20.9 71 3.7 SSE 19 28 10 15 1016.3 1016.2 0.0
29/08:30pm 27.2 27.4 20.5 67 4.4 SSE 20 33 11 18 1015.9 - 0.0
29/08:00pm 27.1 26.5 20.6 67 4.3 SSE 24 32 13 17 1015.9 - 0.0
29/07:30pm 27.5 27.4 20.7 66 4.5 SSE 22 32 12 17 1015.6 - 0.0
29/07:00pm 27.6 25.5 20.9 67 4.4 SE 33 41 18 22 1015.2 - 0.0
29/06:30pm 27.7 25.9 21.1 67 4.4 SE 32 43 17 23 1014.7 - 0.0
29/06:00pm 28.1 26.4 21.7 68 4.3 SE 33 44 18 24 1014.4 1014.3 0.0
29/05:30pm 28.5 26.6 21.3 65 4.8 SE 33 41 18 22 1014.3 - 0.0
29/05:00pm 29.5 27.2 20.6 58 5.9 SE 33 41 18 22 1014.0 - 0.0
29/04:30pm 30.2 27.9 20.2 55 6.6 SE 32 39 17 21 1013.8 - 0.0
29/04:00pm 30.6 28.4 19.6 51 7.2 SE 30 37 16 20 1013.6 - 0.0
29/03:30pm 30.3 27.9 20.0 54 6.8 SE 32 43 17 23 1013.6 - 0.0
29/03:00pm 31.0 28.2 19.0 48 7.8 ESE 32 39 17 21 1013.6 1013.5 0.0
29/02:30pm 30.9 28.1 19.4 50 7.5 ESE 33 43 18 23 1013.9 - 0.0
29/02:00pm 31.7 28.9 19.5 48 8.0 ESE 33 41 18 22 1014.1 - 0.0
29/01:30pm 32.0 29.3 19.3 47 8.3 ESE 32 39 17 21 1014.6 - 0.0
29/01:00pm 31.0 28.8 20.4 53 7.0 ESE 32 39 17 21 1015.0 - 0.0
29/12:30pm 31.3 29.2 19.7 50 7.6 ESE 30 41 16 22 1015.4 - 0.0
29/12:00pm 31.9 29.3 19.6 48 8.1 SE 32 43 17 23 1015.7 1015.6 0.0
29/11:30am 31.1 28.0 18.8 48 8.0 SE 33 48 18 26 1016.1 - 0.0
29/11:00am 30.3 26.6 19.2 51 7.2 SE 37 46 20 25 1016.6 - 0.0
29/10:30am 29.5 25.9 18.6 52 7.0 SE 35 48 19 26 1016.8 - 0.0
29/10:00am 29.9 26.7 18.7 51 7.2 SE 33 43 18 23 1016.8 - 0.0
29/09:30am 29.5 27.4 20.6 58 5.9 SE 32 39 17 21 1016.6 - 0.0
29/09:00am 27.8 26.8 19.6 61 5.3 SSE 24 33 13 18 1016.4 1016.3 0.0
29/08:30am 27.8 26.8 19.6 61 5.3 SSE 24 33 13 18 1016.1 - 0.0
29/08:00am 27.2 27.0 19.8 64 4.8 SSE 20 32 11 17 1015.9 - 0.0

Other Formats:

Comma delimited format used in spreadsheet applications
http://www.bom.gov.au/fwo/IDQ60801/IDQ60801.94287.axf

JavaScript Object Notation format (JSON) in row-major order
http://www.bom.gov.au/fwo/IDQ60801/IDQ60801.94287.json